Time;durP1;ratioP1;P1;durP2;ratioP2;P2;SDS_P1;SDS_P2;PMS_P1;PMS_P2;Temp;Humidity;BMP_temperature;BMP_pressure;BME280_temperature;BME280_humidity;BME280_pressure;Samples;Min_cycle;Max_cycle;Signal;HPM_P1;HPM_P2
2024/03/26 00:01:32;;;;;;;28.60;25.60;;;2.90;88.80;;;;;;5037989;28;20199;-85
2024/03/26 00:03:58;;;;;;;28.67;25.70;;;2.80;88.70;;;;;;5039390;28;20193;-85
2024/03/26 00:06:23;;;;;;;29.37;26.47;;;2.80;88.80;;;;;;5038014;28;20176;-86
2024/03/26 00:08:49;;;;;;;29.00;25.73;;;2.80;88.80;;;;;;5039707;28;20188;-85
2024/03/26 00:11:14;;;;;;;20.47;17.83;;;2.80;88.80;;;;;;5037948;28;20183;-86
2024/03/26 00:13:40;;;;;;;24.83;18.87;;;2.80;88.80;;;;;;5039213;28;20237;-86
2024/03/26 00:16:05;;;;;;;18.53;16.63;;;2.80;88.90;;;;;;5038010;28;20184;-86
2024/03/26 00:18:31;;;;;;;18.07;15.20;;;2.80;88.90;;;;;;5038014;28;20213;-85
2024/03/26 00:20:56;;;;;;;25.00;17.23;;;2.80;89.10;;;;;;5039264;28;20524;-85
2024/03/26 00:23:22;;;;;;;23.40;17.67;;;2.80;89.10;;;;;;5037925;28;20229;-86
2024/03/26 00:25:48;;;;;;;19.80;16.60;;;2.90;89.10;;;;;;5037144;28;20175;-86
2024/03/26 00:28:15;;;;;;;22.63;16.43;;;2.90;89.10;;;;;;5036038;28;20166;-86
2024/03/26 00:30:40;;;;;;;18.37;16.30;;;2.90;89.10;;;;;;5035906;28;20642;-86
2024/03/26 00:33:06;;;;;;;17.90;16.13;;;2.90;88.90;;;;;;5035816;28;20240;-86
2024/03/26 00:35:36;;;;;;;25.57;16.60;;;2.90;88.80;;;;;;5036105;28;20169;-86
2024/03/26 00:38:01;;;;;;;19.30;17.10;;;2.90;88.60;;;;;;5034597;28;20175;-86
2024/03/26 00:40:27;;;;;;;23.50;17.63;;;2.90;88.50;;;;;;5034618;28;20231;-86
2024/03/26 00:42:52;;;;;;;19.73;16.67;;;2.80;88.30;;;;;;5034589;28;20199;-86
2024/03/26 00:45:18;;;;;;;18.87;17.00;;;2.80;88.20;;;;;;5035784;28;20180;-86
2024/03/26 00:47:43;;;;;;;24.67;16.93;;;2.80;88.20;;;;;;5035782;28;20232;-86
2024/03/26 00:50:09;;;;;;;18.97;16.00;;;2.80;88.30;;;;;;5035984;28;20184;-85
2024/03/26 00:52:35;;;;;;;18.83;16.37;;;2.80;88.40;;;;;;5036035;28;20200;-86
2024/03/26 00:55:01;;;;;;;18.17;16.27;;;2.80;88.50;;;;;;5034444;28;20674;-86
2024/03/26 00:57:27;;;;;;;18.20;15.83;;;2.80;88.60;;;;;;5034281;28;20173;-85
2024/03/26 00:59:53;;;;;;;17.90;15.80;;;2.80;88.60;;;;;;5035663;28;20243;-85
2024/03/26 01:02:18;;;;;;;20.73;16.07;;;2.80;88.80;;;;;;5035603;28;20198;-86
2024/03/26 01:04:44;;;;;;;29.90;16.23;;;2.80;88.80;;;;;;5035671;28;20237;-85
2024/03/26 01:07:09;;;;;;;16.40;14.70;;;2.80;88.80;;;;;;5035654;28;20250;-86
2024/03/26 01:09:34;;;;;;;25.47;22.23;;;2.80;88.90;;;;;;5035476;28;20173;-86
2024/03/26 01:12:00;;;;;;;29.57;22.40;;;2.80;88.90;;;;;;5035659;28;20191;-86
2024/03/26 01:14:25;;;;;;;24.77;22.20;;;2.80;88.90;;;;;;5035661;28;20570;-86
2024/03/26 01:16:51;;;;;;;24.20;21.70;;;2.80;89.10;;;;;;5035508;28;20177;-86
2024/03/26 01:19:16;;;;;;;26.00;23.30;;;2.80;89.20;;;;;;5035209;28;20235;-86
2024/03/26 01:21:42;;;;;;;22.67;20.30;;;2.80;89.20;;;;;;5033972;28;20194;-86
2024/03/26 01:24:07;;;;;;;24.27;21.20;;;2.80;89.20;;;;;;5033885;28;20663;-85
2024/03/26 01:26:33;;;;;;;24.20;21.70;;;2.80;89.30;;;;;;5034978;28;20212;-86
2024/03/26 01:28:58;;;;;;;23.77;21.47;;;2.90;89.40;;;;;;5035326;28;20183;-85
2024/03/26 01:31:24;;;;;;;25.43;21.20;;;2.80;89.30;;;;;;5035308;28;20201;-86
2024/03/26 01:33:49;;;;;;;23.57;14.00;;;2.80;89.40;;;;;;5034850;28;20206;-86
2024/03/26 01:36:15;;;;;;;15.83;13.43;;;2.90;89.50;;;;;;5035376;28;20200;-86
2024/03/26 01:38:40;;;;;;;22.77;20.53;;;2.90;89.50;;;;;;5032803;28;20177;-85
2024/03/26 01:41:06;;;;;;;22.57;19.40;;;2.90;89.50;;;;;;5034819;28;20184;-86
2024/03/26 01:43:31;;;;;;;22.53;19.97;;;2.90;89.50;;;;;;5034808;28;20695;-85
2024/03/26 01:45:57;;;;;;;23.10;21.00;;;2.90;89.50;;;;;;5035260;28;20178;-86
2024/03/26 01:48:23;;;;;;;24.20;21.83;;;3.00;89.50;;;;;;5034837;28;20273;-86
2024/03/26 01:50:50;;;;;;;25.37;21.20;;;3.00;89.40;;;;;;5034877;28;20713;-85
2024/03/26 01:53:15;;;;;;;31.27;22.40;;;2.90;89.30;;;;;;5035079;28;20673;-85
2024/03/26 01:55:41;;;;;;;23.07;20.73;;;2.90;89.30;;;;;;5034641;28;20180;-85
2024/03/26 01:58:07;;;;;;;23.30;20.97;;;2.90;89.30;;;;;;5033241;28;20703;-86
2024/03/26 02:00:33;;;;;;;23.53;21.10;;;2.90;89.40;;;;;;5035368;28;20197;-86
2024/03/26 02:02:59;;;;;;;23.83;21.60;;;2.90;89.40;;;;;;5034464;28;20210;-85
2024/03/26 02:05:25;;;;;;;23.93;21.43;;;2.90;89.40;;;;;;5034607;28;20227;-85
2024/03/26 02:07:50;;;;;;;21.43;19.53;;;2.90;89.40;;;;;;5034472;28;20229;-85
2024/03/26 02:10:16;;;;;;;29.20;22.10;;;2.90;89.30;;;;;;5034845;28;20182;-85
2024/03/26 02:12:42;;;;;;;24.37;22.00;;;2.80;89.30;;;;;;5034123;28;20215;-85
2024/03/26 02:15:08;;;;;;;17.50;14.00;;;2.90;89.40;;;;;;5033080;28;20182;-85
2024/03/26 02:17:33;;;;;;;18.57;14.13;;;2.90;89.40;;;;;;5034232;28;20255;-85
2024/03/26 02:19:59;;;;;;;16.70;15.07;;;2.90;89.20;;;;;;5034196;28;20659;-85
2024/03/26 02:22:25;;;;;;;20.27;14.00;;;2.80;89.20;;;;;;5034159;28;20205;-85
2024/03/26 02:24:50;;;;;;;16.40;13.73;;;2.80;89.20;;;;;;5032514;28;20186;-85
2024/03/26 02:27:16;;;;;;;17.03;15.03;;;2.80;89.20;;;;;;5032711;28;20256;-85
2024/03/26 02:29:41;;;;;;;16.07;13.43;;;2.80;89.10;;;;;;5033937;28;20209;-85
2024/03/26 02:32:07;;;;;;;15.60;14.00;;;2.70;89.10;;;;;;5033685;28;20224;-85
2024/03/26 02:34:32;;;;;;;18.07;13.73;;;2.70;89.20;;;;;;5032464;28;20228;-85
2024/03/26 02:36:58;;;;;;;16.23;14.10;;;2.70;89.20;;;;;;5033888;28;20182;-85
2024/03/26 02:39:23;;;;;;;14.63;13.33;;;2.60;89.10;;;;;;5032369;28;20179;-85
2024/03/26 02:41:49;;;;;;;16.93;15.13;;;2.70;89.20;;;;;;5032227;28;20206;-85
2024/03/26 02:44:15;;;;;;;18.67;14.67;;;2.70;89.10;;;;;;5033718;28;20179;-85
2024/03/26 02:46:40;;;;;;;18.03;15.17;;;2.60;88.90;;;;;;5033707;28;20189;-85
2024/03/26 02:49:06;;;;;;;21.17;15.07;;;2.60;88.80;;;;;;5033413;28;20174;-85
2024/03/26 02:51:31;;;;;;;16.27;14.73;;;2.60;88.80;;;;;;5032224;28;20684;-85
2024/03/26 02:53:57;;;;;;;15.33;13.90;;;2.50;88.80;;;;;;5032125;28;20266;-85
2024/03/26 02:56:22;;;;;;;18.80;15.63;;;2.50;88.80;;;;;;5033451;28;20172;-85
2024/03/26 02:58:48;;;;;;;23.13;14.57;;;2.60;88.80;;;;;;5033236;28;20767;-85
2024/03/26 03:01:14;;;;;;;21.17;15.30;;;2.50;88.80;;;;;;5033366;28;20231;-86
2024/03/26 03:03:40;;;;;;;19.93;13.80;;;2.50;88.70;;;;;;5033418;28;20179;-85
2024/03/26 03:06:07;;;;;;;18.00;13.60;;;2.50;88.70;;;;;;5033620;28;20263;-86
2024/03/26 03:08:32;;;;;;;17.87;13.90;;;2.50;88.60;;;;;;5034059;28;20239;-85
2024/03/26 03:10:58;;;;;;;16.17;14.33;;;2.50;88.60;;;;;;5033648;28;20188;-85
2024/03/26 03:13:24;;;;;;;24.90;22.47;;;2.40;88.60;;;;;;5033121;28;20235;-86
2024/03/26 03:15:49;;;;;;;25.43;22.70;;;2.40;88.60;;;;;;5033369;28;20264;-86
2024/03/26 03:18:15;;;;;;;25.93;23.30;;;2.30;88.60;;;;;;5032032;28;20676;-85
2024/03/26 03:20:41;;;;;;;25.43;23.23;;;2.30;88.60;;;;;;5033062;28;20173;-86
2024/03/26 03:23:06;;;;;;;16.10;14.37;;;2.30;88.70;;;;;;5032992;28;20289;-86
2024/03/26 03:25:32;;;;;;;16.47;13.63;;;2.30;88.70;;;;;;5033244;28;20205;-86
2024/03/26 03:27:58;;;;;;;14.27;12.80;;;2.30;88.60;;;;;;5031973;28;20222;-86
2024/03/26 03:30:23;;;;;;;27.93;20.83;;;2.30;88.70;;;;;;5033069;28;20177;-86
2024/03/26 03:32:49;;;;;;;26.20;22.30;;;2.30;88.80;;;;;;5032895;28;20224;-85
2024/03/26 03:35:14;;;;;;;24.20;21.40;;;2.20;88.70;;;;;;5033096;28;20177;-85
2024/03/26 03:37:40;;;;;;;23.30;21.03;;;2.20;88.80;;;;;;5033346;28;20235;-86
2024/03/26 03:40:06;;;;;;;22.73;20.73;;;2.20;88.80;;;;;;5033083;28;20183;-85
2024/03/26 03:42:31;;;;;;;23.20;20.77;;;2.10;88.80;;;;;;5033218;28;20269;-85
2024/03/26 03:44:57;;;;;;;24.00;21.40;;;2.10;88.90;;;;;;5031760;28;20652;-85
2024/03/26 03:47:22;;;;;;;24.87;22.07;;;2.10;88.80;;;;;;5033252;28;20252;-85
2024/03/26 03:49:48;;;;;;;24.03;21.57;;;2.10;88.90;;;;;;5031797;28;20208;-85
2024/03/26 03:52:14;;;;;;;23.63;21.43;;;2.20;89.00;;;;;;5033039;28;20204;-85
2024/03/26 03:54:39;;;;;;;22.23;20.17;;;2.20;89.00;;;;;;5031508;28;20204;-85
2024/03/26 03:57:05;;;;;;;21.53;19.53;;;2.20;89.00;;;;;;5033020;28;20177;-85
2024/03/26 03:59:30;;;;;;;23.40;21.03;;;2.20;89.00;;;;;;5032772;28;20220;-85
2024/03/26 04:01:56;;;;;;;22.67;20.97;;;2.30;89.10;;;;;;5035745;28;20232;-85
2024/03/26 04:04:22;;;;;;;21.73;19.70;;;2.30;89.00;;;;;;5035279;28;20215;-85
2024/03/26 04:06:47;;;;;;;21.80;19.87;;;2.30;89.00;;;;;;5036371;28;20184;-85
2024/03/26 04:09:14;;;;;;;23.67;20.33;;;2.30;89.00;;;;;;5035121;28;20195;-85
2024/03/26 04:11:39;;;;;;;22.63;20.30;;;2.30;88.90;;;;;;5036336;28;20200;-86
2024/03/26 04:14:05;;;;;;;21.97;19.67;;;2.30;88.90;;;;;;5036161;28;20210;-85
2024/03/26 04:16:30;;;;;;;17.27;14.50;;;2.30;88.90;;;;;;5036821;28;20266;-86
2024/03/26 04:18:56;;;;;;;18.03;14.20;;;2.30;88.90;;;;;;5036070;28;20181;-86
2024/03/26 04:21:21;;;;;;;15.43;13.33;;;2.30;88.90;;;;;;5034787;28;20238;-85
2024/03/26 04:23:47;;;;;;;22.00;20.33;;;2.30;88.90;;;;;;5034991;28;20189;-85
2024/03/26 04:26:13;;;;;;;23.37;21.23;;;2.30;88.80;;;;;;5036323;28;20168;-85
2024/03/26 04:28:38;;;;;;;22.60;20.80;;;2.30;88.70;;;;;;5036350;28;20180;-85
2024/03/26 04:31:04;;;;;;;23.97;21.50;;;2.30;88.70;;;;;;5035992;28;20184;-85
2024/03/26 04:33:30;;;;;;;23.30;21.13;;;2.30;88.70;;;;;;5034654;28;20702;-85
2024/03/26 04:35:56;;;;;;;25.87;20.03;;;2.30;88.80;;;;;;5036815;28;20547;-85
2024/03/26 04:38:21;;;;;;;24.03;21.63;;;2.30;88.80;;;;;;5035327;28;20660;-86
2024/03/26 04:40:47;;;;;;;15.53;13.37;;;2.30;88.70;;;;;;5036549;28;20172;-85
2024/03/26 04:43:13;;;;;;;14.20;12.73;;;2.30;88.80;;;;;;5035312;28;20204;-85
2024/03/26 04:45:39;;;;;;;16.27;13.27;;;2.40;88.80;;;;;;5036869;28;20190;-86
2024/03/26 04:48:04;;;;;;;15.17;12.90;;;2.30;88.80;;;;;;5036512;28;20173;-87
2024/03/26 04:50:31;;;;;;;16.73;13.70;;;2.40;88.90;;;;;;5036441;28;20671;-86
2024/03/26 04:52:56;;;;;;;21.03;13.50;;;2.30;88.90;;;;;;5034936;28;20258;-86
2024/03/26 04:55:22;;;;;;;16.57;13.37;;;2.30;88.80;;;;;;5036127;28;20181;-85
2024/03/26 04:57:48;;;;;;;16.37;14.30;;;2.40;88.90;;;;;;5036292;28;20175;-85
2024/03/26 05:00:14;;;;;;;15.70;12.77;;;2.40;88.80;;;;;;5035327;28;20176;-85
2024/03/26 05:02:40;;;;;;;27.13;13.67;;;2.40;88.80;;;;;;5034743;28;20198;-85
2024/03/26 05:05:06;;;;;;;18.83;14.20;;;2.40;88.80;;;;;;5036494;28;20173;-85
2024/03/26 05:07:32;;;;;;;18.03;14.33;;;2.30;88.80;;;;;;5034637;28;20253;-85
2024/03/26 05:09:58;;;;;;;16.80;15.00;;;2.30;88.70;;;;;;5036100;28;20196;-86
2024/03/26 05:12:24;;;;;;;18.20;14.27;;;2.30;88.90;;;;;;5034915;28;20576;-85
2024/03/26 05:14:49;;;;;;;19.00;13.07;;;2.30;89.00;;;;;;5034751;28;20176;-85
2024/03/26 05:17:15;;;;;;;18.73;13.20;;;2.20;89.10;;;;;;5036182;28;20184;-85
2024/03/26 05:19:40;;;;;;;16.53;13.37;;;2.20;89.30;;;;;;5036078;28;20692;-86
2024/03/26 05:22:06;;;;;;;14.23;12.33;;;2.20;89.50;;;;;;5034954;28;20200;-86
2024/03/26 05:24:32;;;;;;;18.53;13.07;;;2.30;89.50;;;;;;5034860;28;20177;-85
2024/03/26 05:26:58;;;;;;;17.97;12.50;;;2.30;89.60;;;;;;5036363;28;20209;-86
2024/03/26 05:29:23;;;;;;;16.20;12.90;;;2.30;89.60;;;;;;5034561;28;20279;-85
2024/03/26 05:31:49;;;;;;;25.63;13.87;;;2.40;89.60;;;;;;5034349;28;20208;-86
2024/03/26 05:34:14;;;;;;;16.93;12.83;;;2.40;89.50;;;;;;5034344;28;20255;-85
2024/03/26 05:36:40;;;;;;;20.37;13.97;;;2.40;89.50;;;;;;5035305;28;20595;-85
2024/03/26 05:39:06;;;;;;;17.63;13.60;;;2.40;89.50;;;;;;5036149;28;20586;-85
2024/03/26 05:41:32;;;;;;;24.50;19.27;;;2.40;89.50;;;;;;5035339;28;20192;-86
2024/03/26 05:43:57;;;;;;;26.27;18.27;;;2.50;89.50;;;;;;5035477;28;20219;-85
2024/03/26 05:46:23;;;;;;;22.60;18.80;;;2.50;89.50;;;;;;5035576;28;20184;-87
2024/03/26 05:48:48;;;;;;;22.70;20.17;;;2.60;89.40;;;;;;5036440;28;20231;-87
2024/03/26 05:51:14;;;;;;;22.67;20.23;;;2.60;89.30;;;;;;5037486;28;20176;-86
2024/03/26 05:53:39;;;;;;;22.40;19.20;;;2.70;89.20;;;;;;5035427;28;20211;-86
2024/03/26 05:56:05;;;;;;;20.97;18.90;;;2.70;89.10;;;;;;5037092;28;20180;-84
2024/03/26 05:58:30;;;;;;;24.00;20.47;;;2.80;89.00;;;;;;5034726;28;20188;-86
2024/03/26 06:01:02;;;;;;;22.83;20.53;;;2.80;88.90;;;;;;5035229;28;20645;-85
2024/03/26 06:03:28;;;;;;;23.40;19.33;;;2.80;88.80;;;;;;5035159;28;20204;-85
2024/03/26 06:05:53;;;;;;;20.90;18.83;;;2.80;88.70;;;;;;5035711;28;20185;-86
2024/03/26 06:08:19;;;;;;;27.70;20.30;;;2.90;88.60;;;;;;5036953;28;20177;-87
2024/03/26 06:10:44;;;;;;;21.00;18.40;;;2.90;88.50;;;;;;5036508;28;20176;-87
2024/03/26 06:13:10;;;;;;;21.23;18.83;;;3.00;88.30;;;;;;5036399;28;20206;-86
2024/03/26 06:15:35;;;;;;;23.10;20.77;;;3.00;88.10;;;;;;5037048;28;20534;-87
2024/03/26 06:18:01;;;;;;;22.07;19.70;;;3.10;87.90;;;;;;5037462;28;20226;-86
2024/03/26 06:20:26;;;;;;;20.53;18.43;;;3.10;87.70;;;;;;5037453;28;20177;-87
2024/03/26 06:22:52;;;;;;;26.73;19.77;;;3.10;87.60;;;;;;5034823;28;20201;-89
2024/03/26 06:25:17;;;;;;;22.27;20.00;;;3.20;87.40;;;;;;5033554;28;20176;-89
2024/03/26 06:27:42;;;;;;;23.77;19.27;;;3.20;87.30;;;;;;5035413;28;20221;-87
2024/03/26 06:30:08;;;;;;;23.90;21.37;;;3.20;87.20;;;;;;5035168;28;20181;-87
2024/03/26 06:32:34;;;;;;;24.77;20.97;;;3.20;87.10;;;;;;5035287;28;20201;-85
2024/03/26 06:34:59;;;;;;;26.60;19.47;;;3.30;87.10;;;;;;5036883;28;20204;-86
2024/03/26 06:37:25;;;;;;;19.60;17.53;;;3.30;87.10;;;;;;5037671;28;20621;-85
2024/03/26 06:39:50;;;;;;;21.13;19.17;;;3.30;87.10;;;;;;5036047;28;20260;-85
2024/03/26 06:42:16;;;;;;;23.70;21.13;;;3.30;87.20;;;;;;5036397;28;20200;-85
2024/03/26 06:44:41;;;;;;;20.63;18.57;;;3.40;87.20;;;;;;5034866;28;20183;-88
2024/03/26 06:47:07;;;;;;;15.67;14.03;;;3.50;87.30;;;;;;5034477;28;20176;-87
2024/03/26 06:49:32;;;;;;;19.87;14.43;;;3.60;87.40;;;;;;5034529;28;20178;-86
2024/03/26 06:51:58;;;;;;;20.17;18.47;;;3.70;87.30;;;;;;5036881;28;20233;-86
2024/03/26 06:54:23;;;;;;;24.27;21.10;;;3.80;87.10;;;;;;5035519;28;20566;-87
2024/03/26 06:56:49;;;;;;;22.23;20.00;;;3.80;86.80;;;;;;5036057;28;20170;-86
2024/03/26 06:59:14;;;;;;;21.87;19.70;;;4.00;86.70;;;;;;5034076;28;20190;-85
2024/03/26 07:01:40;;;;;;;24.27;21.70;;;4.00;86.50;;;;;;5036090;28;20559;-86
2024/03/26 07:04:05;;;;;;;22.13;20.20;;;4.10;86.40;;;;;;5035996;28;20187;-85
2024/03/26 07:06:31;;;;;;;24.03;21.43;;;4.20;86.40;;;;;;5035723;28;20190;-86
2024/03/26 07:08:57;;;;;;;20.70;19.00;;;4.20;86.30;;;;;;5036543;28;20231;-85
2024/03/26 07:11:23;;;;;;;25.50;21.03;;;4.30;86.10;;;;;;5034696;28;20207;-85
2024/03/26 07:13:49;;;;;;;14.17;12.70;;;4.40;86.00;;;;;;5035846;28;20211;-89
2024/03/26 07:16:14;;;;;;;18.33;14.03;;;4.50;86.00;;;;;;5033837;28;20180;-90
2024/03/26 07:18:40;;;;;;;14.67;13.27;;;4.50;85.50;;;;;;5032847;28;20179;-93
2024/03/26 07:21:05;;;;;;;16.73;14.17;;;4.60;85.10;;;;;;5032027;28;20171;-91
2024/03/26 07:23:31;;;;;;;15.13;13.63;;;4.80;85.30;;;;;;5032677;28;20199;-93
2024/03/26 07:25:57;;;;;;;18.73;14.33;;;4.80;84.50;;;;;;5031935;28;20191;-90
2024/03/26 07:28:23;;;;;;;15.80;13.20;;;4.90;84.20;;;;;;5033069;28;20655;-92
2024/03/26 07:30:48;;;;;;;14.80;13.30;;;4.90;83.40;;;;;;5033310;28;20283;-90
2024/03/26 07:33:14;;;;;;;15.80;14.13;;;5.00;83.60;;;;;;5032897;28;20235;-91
2024/03/26 07:35:40;;;;;;;15.73;14.13;;;5.10;83.50;;;;;;5035762;28;20184;-92
2024/03/26 07:38:06;;;;;;;19.67;15.50;;;5.30;83.70;;;;;;5035716;28;20264;-90
2024/03/26 07:40:32;;;;;;;16.90;15.30;;;5.40;83.70;;;;;;5035934;28;20180;-91
2024/03/26 07:42:57;;;;;;;16.87;15.03;;;5.60;83.30;;;;;;5036850;28;20200;-91
2024/03/26 07:45:23;;;;;;;16.13;14.57;;;5.70;82.70;;;;;;5036034;28;20655;-91
2024/03/26 07:47:49;;;;;;;19.93;14.37;;;5.80;82.20;;;;;;5035562;28;20188;-91
2024/03/26 07:50:15;;;;;;;16.27;14.73;;;5.90;82.00;;;;;;5035682;28;20736;-89
2024/03/26 07:52:40;;;;;;;16.57;14.97;;;6.00;81.40;;;;;;5035498;28;20583;-91
2024/03/26 07:55:06;;;;;;;21.67;15.33;;;6.10;81.40;;;;;;5036282;28;20177;-92
2024/03/26 07:57:31;;;;;;;19.67;15.30;;;6.20;80.80;;;;;;5035385;28;20613;-91
2024/03/26 07:59:57;;;;;;;16.47;14.80;;;6.30;80.70;;;;;;5035398;28;20695;-91
2024/03/26 08:02:23;;;;;;;17.77;16.00;;;6.50;80.70;;;;;;5035178;28;20193;-91
2024/03/26 08:04:52;;;;;;;16.70;14.67;;;6.70;80.80;;;;;;5035365;28;20209;-91
2024/03/26 08:07:17;;;;;;;18.63;15.27;;;6.80;80.30;;;;;;5035357;28;20561;-91
2024/03/26 08:09:43;;;;;;;17.53;16.00;;;6.90;79.10;;;;;;5035653;28;20177;-91
2024/03/26 08:12:08;;;;;;;19.43;17.43;;;7.00;78.40;;;;;;5035611;28;20208;-91
2024/03/26 08:14:36;;;;;;;23.23;18.37;;;7.20;77.70;;;;;;5035347;28;20202;-93
2024/03/26 08:17:02;;;;;;;17.13;15.30;;;7.30;78.40;;;;;;5035129;28;20172;-93
2024/03/26 08:19:28;;;;;;;18.13;16.60;;;7.50;78.30;;;;;;5036268;28;20172;-89
2024/03/26 08:21:53;;;;;;;18.57;16.90;;;7.50;75.90;;;;;;5034934;28;20234;-93
2024/03/26 08:24:19;;;;;;;18.20;16.63;;;7.60;75.10;;;;;;5034901;28;20179;-91
2024/03/26 08:26:45;;;;;;;19.63;17.80;;;7.80;76.30;;;;;;5035790;28;20180;-91
2024/03/26 08:29:10;;;;;;;19.73;18.03;;;7.80;75.80;;;;;;5034897;28;20262;-92
2024/03/26 08:31:36;;;;;;;19.43;17.93;;;7.90;74.70;;;;;;5036111;28;20578;-91
2024/03/26 08:34:02;;;;;;;20.10;18.43;;;7.90;74.60;;;;;;5036028;28;20193;-93
2024/03/26 08:36:27;;;;;;;21.10;19.30;;;8.00;74.40;;;;;;5034905;28;20554;-92
2024/03/26 08:38:53;;;;;;;20.00;18.23;;;8.10;74.80;;;;;;5034924;28;20180;-92
2024/03/26 08:41:18;;;;;;;21.43;19.63;;;8.20;73.90;;;;;;5034645;28;20184;-90
2024/03/26 08:43:44;;;;;;;20.33;18.87;;;8.20;72.30;;;;;;5035962;28;20279;-91
2024/03/26 08:46:11;;;;;;;20.27;18.33;;;8.20;72.30;;;;;;5034084;28;20183;-89
2024/03/26 08:48:36;;;;;;;20.27;18.63;;;8.20;72.30;;;;;;5034949;28;20176;-90
2024/03/26 08:51:02;;;;;;;20.53;19.00;;;8.30;72.70;;;;;;5034671;28;20555;-91
2024/03/26 08:53:28;;;;;;;20.33;18.73;;;8.40;73.20;;;;;;5034423;28;20205;-90
2024/03/26 08:55:53;;;;;;;20.43;18.73;;;8.50;73.20;;;;;;5035909;28;20180;-91
2024/03/26 08:58:18;;;;;;;20.67;18.93;;;8.60;72.10;;;;;;5035792;28;20198;-91
2024/03/26 09:00:44;;;;;;;20.40;18.83;;;8.80;71.90;;;;;;5034397;28;20668;-89
2024/03/26 09:03:09;;;;;;;22.40;20.37;;;8.90;72.40;;;;;;5034678;28;20246;-91
2024/03/26 09:05:35;;;;;;;20.20;18.70;;;8.90;69.20;;;;;;5034215;28;20181;-91
2024/03/26 09:08:00;;;;;;;21.10;19.33;;;9.00;69.00;;;;;;5035764;28;20181;-90
2024/03/26 09:10:26;;;;;;;22.17;20.00;;;8.90;68.90;;;;;;5034167;28;20256;-91
2024/03/26 09:12:52;;;;;;;22.03;20.03;;;9.00;69.90;;;;;;5035287;28;20203;-91
2024/03/26 09:15:18;;;;;;;20.80;19.00;;;9.10;69.40;;;;;;5035530;28;20172;-91
2024/03/26 09:17:43;;;;;;;21.00;19.40;;;9.20;68.90;;;;;;5034092;28;20173;-91
2024/03/26 09:20:10;;;;;;;35.97;33.47;;;9.30;69.20;;;;;;5033927;28;20262;-92
2024/03/26 09:22:36;;;;;;;37.07;34.43;;;9.30;67.50;;;;;;5033768;28;20193;-90
2024/03/26 09:25:02;;;;;;;37.00;34.47;;;9.50;69.20;;;;;;5033816;28;20645;-91
2024/03/26 09:27:28;;;;;;;34.50;32.00;;;9.60;68.50;;;;;;5033697;28;20180;-90
2024/03/26 09:29:53;;;;;;;36.70;34.03;;;9.70;67.90;;;;;;5034987;28;20536;-91
2024/03/26 09:32:19;;;;;;;37.67;35.07;;;9.80;67.80;;;;;;5033766;28;20196;-91
2024/03/26 09:34:44;;;;;;;37.43;34.77;;;9.90;67.70;;;;;;5034913;28;20196;-91
2024/03/26 09:37:10;;;;;;;36.37;33.73;;;10.00;67.00;;;;;;5034838;28;20176;-91
2024/03/26 09:39:36;;;;;;;31.93;29.53;;;10.00;67.00;;;;;;5033655;28;20242;-93
2024/03/26 09:42:03;;;;;;;37.80;35.07;;;10.10;66.20;;;;;;5033556;28;20196;-90
2024/03/26 09:44:33;;;;;;;38.47;35.40;;;10.10;64.40;;;;;;5033504;28;20744;-91
2024/03/26 09:47:01;;;;;;;37.30;34.77;;;10.10;65.70;;;;;;5033563;28;20177;-91
2024/03/26 09:49:28;;;;;;;37.57;34.80;;;10.20;63.20;;;;;;5033586;28;20554;-91
2024/03/26 09:51:54;;;;;;;39.40;36.60;;;10.30;63.60;;;;;;5034612;28;20196;-91
2024/03/26 09:54:21;;;;;;;36.57;33.97;;;10.40;63.90;;;;;;5034568;28;20201;-91
2024/03/26 09:56:47;;;;;;;33.07;30.63;;;10.40;62.70;;;;;;5033294;28;20255;-91
2024/03/26 09:59:13;;;;;;;32.20;29.80;;;10.40;60.70;;;;;;5032761;28;20185;-92
2024/03/26 10:01:39;;;;;;;33.23;30.90;;;10.50;60.70;;;;;;5033163;28;20199;-92
2024/03/26 10:04:05;;;;;;;36.07;33.43;;;10.70;60.30;;;;;;5033973;28;20184;-91
2024/03/26 10:06:31;;;;;;;36.60;33.97;;;10.90;60.30;;;;;;5033156;28;20177;-91
2024/03/26 10:09:00;;;;;;;36.00;33.60;;;10.80;58.30;;;;;;5034377;28;20173;-90
2024/03/26 10:11:26;;;;;;;39.07;36.47;;;11.00;59.70;;;;;;5033129;28;20169;-91
2024/03/26 10:13:52;;;;;;;38.60;35.90;;;11.00;57.70;;;;;;5034184;28;20189;-91
2024/03/26 10:16:18;;;;;;;38.83;36.03;;;10.90;58.50;;;;;;5032948;28;20641;-91
2024/03/26 10:18:44;;;;;;;38.13;35.10;;;11.00;57.90;;;;;;5033083;28;20268;-90
2024/03/26 10:21:10;;;;;;;37.20;34.57;;;11.10;58.90;;;;;;5032738;28;20276;-92
2024/03/26 10:23:35;;;;;;;25.07;23.20;;;11.20;57.00;;;;;;5032823;28;20176;-91
2024/03/26 10:26:01;;;;;;;25.50;23.50;;;11.20;55.90;;;;;;5032756;28;20190;-91
2024/03/26 10:28:26;;;;;;;25.60;23.47;;;11.20;56.40;;;;;;5032905;28;20180;-91
2024/03/26 10:30:52;;;;;;;25.13;23.27;;;11.10;57.10;;;;;;5034036;28;20259;-91
2024/03/26 10:33:23;;;;;;;26.20;24.17;;;11.00;54.10;;;;;;5032408;28;20201;-91
2024/03/26 10:35:52;;;;;;;24.53;22.40;;;10.80;54.50;;;;;;5034408;28;20565;-87
2024/03/26 10:38:22;;;;;;;24.50;22.60;;;11.00;56.50;;;;;;5036882;28;20222;-88
2024/03/26 10:40:49;;;;;;;24.87;22.97;;;11.20;54.40;;;;;;5036100;28;20625;-87
2024/03/26 10:43:15;;;;;;;25.13;23.27;;;11.30;57.30;;;;;;5036145;28;20238;-87
2024/03/26 10:45:42;;;;;;;25.40;23.50;;;11.50;57.60;;;;;;5035384;28;20212;-87
2024/03/26 10:48:09;;;;;;;24.97;23.07;;;11.50;56.00;;;;;;5037685;28;20179;-87
2024/03/26 10:50:35;;;;;;;24.73;22.93;;;11.70;59.20;;;;;;5036868;28;20271;-87
2024/03/26 10:53:03;;;;;;;24.20;22.40;;;11.80;59.60;;;;;;5036937;28;20200;-89
2024/03/26 10:55:30;;;;;;;24.37;22.57;;;11.90;56.20;;;;;;5036631;28;20597;-88
2024/03/26 10:57:57;;;;;;;24.73;22.83;;;12.00;56.00;;;;;;5036854;28;20177;-89
2024/03/26 11:00:23;;;;;;;24.20;22.40;;;12.00;57.50;;;;;;5035745;28;20173;-88
2024/03/26 11:02:53;;;;;;;26.00;23.87;;;12.00;55.60;;;;;;5037781;28;20208;-87
2024/03/26 11:05:21;;;;;;;24.70;22.77;;;12.00;55.80;;;;;;5037174;28;20165;-88
2024/03/26 11:07:48;;;;;;;25.00;23.00;;;12.10;57.30;;;;;;5034733;28;20180;-88
2024/03/26 11:10:16;;;;;;;24.47;22.47;;;12.10;56.30;;;;;;5034524;28;20188;-89
2024/03/26 11:12:42;;;;;;;24.80;22.90;;;12.20;57.40;;;;;;5035522;28;20291;-88
2024/03/26 11:15:14;;;;;;;24.90;22.70;;;12.30;57.50;;;;;;5036316;28;20164;-87
2024/03/26 11:17:57;;;;;;;24.27;22.20;;;12.50;56.30;;;;;;5036579;28;20176;-88
2024/03/26 11:20:27;;;;;;;24.17;22.47;;;12.60;56.80;;;;;;5037336;28;20161;-89
2024/03/26 11:23:02;;;;;;;25.60;23.40;;;12.50;55.50;;;;;;5035727;28;20197;-87
2024/03/26 11:25:28;;;;;;;24.33;22.23;;;12.30;56.80;;;;;;5037352;28;20687;-87
2024/03/26 11:27:55;;;;;;;23.47;21.43;;;12.10;56.10;;;;;;5036837;28;20240;-88
2024/03/26 11:30:29;;;;;;;23.80;21.80;;;12.10;58.40;;;;;;5037200;28;20244;-87
2024/03/26 11:32:56;;;;;;;23.80;22.00;;;12.00;55.20;;;;;;5037348;28;20612;-91
2024/03/26 11:35:26;;;;;;;23.43;21.63;;;11.90;55.40;;;;;;5036934;28;20736;-88
2024/03/26 11:37:54;;;;;;;24.10;21.73;;;12.00;56.40;;;;;;5036576;28;20157;-87
2024/03/26 11:40:20;;;;;;;24.20;22.27;;;12.00;57.90;;;;;;5035746;28;20553;-86
2024/03/26 11:42:52;;;;;;;24.63;22.63;;;11.90;56.10;;;;;;5035333;28;20227;-88
2024/03/26 11:45:18;;;;;;;24.77;22.67;;;12.00;57.90;;;;;;5037593;28;20158;-87
2024/03/26 11:47:44;;;;;;;24.97;22.83;;;11.80;58.40;;;;;;5036865;28;20168;-87
2024/03/26 11:50:10;;;;;;;23.70;21.73;;;11.70;58.50;;;;;;5035001;28;20173;-89
2024/03/26 11:52:36;;;;;;;24.20;22.27;;;11.80;59.50;;;;;;5037132;28;20196;-89
2024/03/26 11:55:02;;;;;;;24.70;21.83;;;12.00;57.30;;;;;;5035664;28;20211;-88
2024/03/26 11:57:28;;;;;;;23.90;22.07;;;12.10;58.50;;;;;;5035796;28;20173;-88
2024/03/26 11:59:54;;;;;;;24.17;22.27;;;12.30;59.30;;;;;;5037336;28;20594;-87
2024/03/26 12:02:20;;;;;;;23.23;21.30;;;12.50;57.50;;;;;;5035569;28;20206;-87
2024/03/26 12:04:46;;;;;;;24.67;22.50;;;12.60;52.20;;;;;;5036429;28;20757;-88
2024/03/26 12:07:15;;;;;;;23.33;21.33;;;12.80;53.00;;;;;;5036674;28;20185;-88
2024/03/26 12:09:40;;;;;;;24.67;22.57;;;12.90;51.50;;;;;;5036753;28;20204;-87
2024/03/26 12:12:09;;;;;;;23.93;22.13;;;13.00;52.70;;;;;;5037156;28;20196;-89
2024/03/26 12:14:35;;;;;;;24.73;22.77;;;13.10;50.90;;;;;;5035502;28;20572;-88
2024/03/26 12:17:02;;;;;;;25.67;23.40;;;13.20;54.40;;;;;;5036725;28;20248;-88
2024/03/26 12:19:28;;;;;;;23.83;21.93;;;13.10;52.50;;;;;;5037069;28;20201;-87
2024/03/26 12:21:54;;;;;;;25.27;23.10;;;12.80;51.70;;;;;;5036994;28;20562;-89
2024/03/26 12:24:19;;;;;;;24.67;22.73;;;12.70;53.90;;;;;;5040383;28;20569;-87
2024/03/26 12:26:45;;;;;;;34.87;32.27;;;12.80;55.90;;;;;;5039014;28;20539;-88
2024/03/26 12:29:11;;;;;;;32.67;30.27;;;12.80;55.60;;;;;;5039459;28;20173;-89